sensor_id;sensor_type;location;lat;lon;timestamp;pressure;altitude;pressure_sealevel;temperature;humidity
58785;BME280;44557;51.862;19.378;2023-08-21T00:01:51;99615.08;;;25.71;65.04
58785;BME280;44557;51.862;19.378;2023-08-21T00:03:52;99618.47;;;25.55;65.95
58785;BME280;44557;51.862;19.378;2023-08-21T00:05:54;99613.55;;;25.35;66.82
58785;BME280;44557;51.862;19.378;2023-08-21T00:07:55;99614.09;;;25.43;66.94
58785;BME280;44557;51.862;19.378;2023-08-21T00:09:57;99614.79;;;25.64;66.15
58785;BME280;44557;51.862;19.378;2023-08-21T00:11:59;99615.02;;;25.64;66.17
58785;BME280;44557;51.862;19.378;2023-08-21T00:14:00;99615.61;;;25.66;66.42
58785;BME280;44557;51.862;19.378;2023-08-21T00:16:02;99616.77;;;25.55;66.84
58785;BME280;44557;51.862;19.378;2023-08-21T00:18:04;99613.42;;;25.54;67.22
58785;BME280;44557;51.862;19.378;2023-08-21T00:20:06;99609.82;;;25.32;68.08
58785;BME280;44557;51.862;19.378;2023-08-21T00:22:10;99609.52;;;25.21;68.87
58785;BME280;44557;51.862;19.378;2023-08-21T00:24:12;99611.21;;;25.24;69.18
58785;BME280;44557;51.862;19.378;2023-08-21T00:26:14;99611.48;;;25.31;69.05
58785;BME280;44557;51.862;19.378;2023-08-21T00:28:15;99609.52;;;25.24;69.82
58785;BME280;44557;51.862;19.378;2023-08-21T00:30:17;99609.78;;;25.27;69.89
58785;BME280;44557;51.862;19.378;2023-08-21T00:32:19;99612.70;;;25.09;70.67
58785;BME280;44557;51.862;19.378;2023-08-21T00:34:20;99611.14;;;25.17;70.66
58785;BME280;44557;51.862;19.378;2023-08-21T00:36:22;99609.67;;;25.28;70.54
58785;BME280;44557;51.862;19.378;2023-08-21T00:38:24;99611.16;;;25.41;70.18
58785;BME280;44557;51.862;19.378;2023-08-21T00:40:26;99607.86;;;25.27;70.89
58785;BME280;44557;51.862;19.378;2023-08-21T00:42:27;99604.27;;;25.14;71.65
58785;BME280;44557;51.862;19.378;2023-08-21T00:44:29;99604.65;;;25.09;72.14
58785;BME280;44557;51.862;19.378;2023-08-21T00:46:31;99608.00;;;25.17;72.08
58785;BME280;44557;51.862;19.378;2023-08-21T00:48:33;99606.08;;;25.06;72.68
58785;BME280;44557;51.862;19.378;2023-08-21T00:50:36;99610.73;;;24.97;73.42
58785;BME280;44557;51.862;19.378;2023-08-21T00:52:39;99612.91;;;25.01;73.31
58785;BME280;44557;51.862;19.378;2023-08-21T00:54:41;99608.23;;;25.01;73.55
58785;BME280;44557;51.862;19.378;2023-08-21T00:56:43;99608.80;;;24.96;73.85
58785;BME280;44557;51.862;19.378;2023-08-21T00:58:45;99609.60;;;24.90;74.15
58785;BME280;44557;51.862;19.378;2023-08-21T01:00:48;99613.02;;;24.99;73.97
58785;BME280;44557;51.862;19.378;2023-08-21T01:02:51;99606.90;;;24.95;74.51
58785;BME280;44557;51.862;19.378;2023-08-21T01:04:53;99604.90;;;24.88;74.89
58785;BME280;44557;51.862;19.378;2023-08-21T01:06:56;99601.80;;;24.66;75.86
58785;BME280;44557;51.862;19.378;2023-08-21T01:09:24;99597.42;;;24.68;76.22
58785;BME280;44557;51.862;19.378;2023-08-21T01:15:58;99605.69;;;24.46;77.38
58785;BME280;44557;51.862;19.378;2023-08-21T01:18:00;99603.16;;;24.44;77.48
58785;BME280;44557;51.862;19.378;2023-08-21T01:20:07;99599.96;;;24.66;76.46
58785;BME280;44557;51.862;19.378;2023-08-21T01:22:10;99594.77;;;24.45;77.48
58785;BME280;44557;51.862;19.378;2023-08-21T01:24:13;99598.84;;;24.30;78.44
58785;BME280;44557;51.862;19.378;2023-08-21T01:26:15;99600.02;;;24.43;78.07
58785;BME280;44557;51.862;19.378;2023-08-21T01:28:16;99599.40;;;24.47;77.86
58785;BME280;44557;51.862;19.378;2023-08-21T01:30:18;99598.41;;;24.40;78.44
58785;BME280;44557;51.862;19.378;2023-08-21T01:34:59;99595.73;;;24.41;78.62
58785;BME280;44557;51.862;19.378;2023-08-21T01:37:02;99590.29;;;24.48;78.52
58785;BME280;44557;51.862;19.378;2023-08-21T01:39:04;99590.27;;;24.44;78.63
58785;BME280;44557;51.862;19.378;2023-08-21T01:41:06;99590.17;;;24.30;79.56
58785;BME280;44557;51.862;19.378;2023-08-21T01:43:08;99590.29;;;24.16;80.60
58785;BME280;44557;51.862;19.378;2023-08-21T01:45:10;99587.55;;;24.00;81.47
58785;BME280;44557;51.862;19.378;2023-08-21T01:47:12;99590.16;;;24.15;80.59
58785;BME280;44557;51.862;19.378;2023-08-21T01:49:14;99593.44;;;23.98;81.30
58785;BME280;44557;51.862;19.378;2023-08-21T01:51:15;99595.48;;;23.96;81.21
58785;BME280;44557;51.862;19.378;2023-08-21T01:53:17;99594.33;;;23.80;81.53
58785;BME280;44557;51.862;19.378;2023-08-21T01:55:19;99594.98;;;23.83;81.50
58785;BME280;44557;51.862;19.378;2023-08-21T01:57:21;99598.62;;;24.01;81.10
58785;BME280;44557;51.862;19.378;2023-08-21T01:59:24;99598.56;;;23.95;81.38
58785;BME280;44557;51.862;19.378;2023-08-21T02:01:25;99593.53;;;23.89;82.17
58785;BME280;44557;51.862;19.378;2023-08-21T02:03:27;99594.89;;;23.97;81.90
58785;BME280;44557;51.862;19.378;2023-08-21T02:05:37;99595.54;;;23.94;81.94
58785;BME280;44557;51.862;19.378;2023-08-21T02:07:39;99596.55;;;24.08;81.57
58785;BME280;44557;51.862;19.378;2023-08-21T02:09:40;99593.94;;;24.10;81.32
58785;BME280;44557;51.862;19.378;2023-08-21T02:11:42;99596.55;;;24.04;81.70
58785;BME280;44557;51.862;19.378;2023-08-21T02:13:44;99601.17;;;23.92;82.35
58785;BME280;44557;51.862;19.378;2023-08-21T02:15:46;99606.00;;;23.93;82.36
58785;BME280;44557;51.862;19.378;2023-08-21T02:17:48;99605.16;;;23.99;81.69
58785;BME280;44557;51.862;19.378;2023-08-21T02:19:49;99603.34;;;24.07;81.48
58785;BME280;44557;51.862;19.378;2023-08-21T02:21:51;99601.80;;;23.85;82.69
58785;BME280;44557;51.862;19.378;2023-08-21T02:23:53;99595.95;;;23.84;82.82
58785;BME280;44557;51.862;19.378;2023-08-21T02:25:55;99595.45;;;23.84;82.81
58785;BME280;44557;51.862;19.378;2023-08-21T02:27:57;99595.88;;;23.56;84.25
58785;BME280;44557;51.862;19.378;2023-08-21T02:29:59;99596.06;;;23.41;85.57
58785;BME280;44557;51.862;19.378;2023-08-21T02:32:01;99593.19;;;23.28;86.36
58785;BME280;44557;51.862;19.378;2023-08-21T02:34:03;99590.85;;;23.39;86.09
58785;BME280;44557;51.862;19.378;2023-08-21T02:36:05;99586.54;;;23.67;84.62
58785;BME280;44557;51.862;19.378;2023-08-21T02:38:09;99582.55;;;23.69;84.22
58785;BME280;44557;51.862;19.378;2023-08-21T02:40:10;99584.04;;;23.71;84.16
58785;BME280;44557;51.862;19.378;2023-08-21T02:42:13;99582.29;;;23.84;83.49
58785;BME280;44557;51.862;19.378;2023-08-21T02:44:15;99584.82;;;23.90;82.92
58785;BME280;44557;51.862;19.378;2023-08-21T02:46:17;99586.06;;;23.88;82.46
58785;BME280;44557;51.862;19.378;2023-08-21T02:48:19;99580.48;;;23.40;84.48
58785;BME280;44557;51.862;19.378;2023-08-21T02:50:20;99580.55;;;23.30;85.74
58785;BME280;44557;51.862;19.378;2023-08-21T02:52:22;99579.02;;;23.37;85.66
58785;BME280;44557;51.862;19.378;2023-08-21T02:54:24;99575.96;;;23.51;84.94
58785;BME280;44557;51.862;19.378;2023-08-21T02:56:26;99577.33;;;23.42;85.33
58785;BME280;44557;51.862;19.378;2023-08-21T02:58:28;99576.27;;;23.42;85.29
58785;BME280;44557;51.862;19.378;2023-08-21T03:00:30;99575.81;;;23.41;85.32
58785;BME280;44557;51.862;19.378;2023-08-21T03:02:31;99569.27;;;23.37;85.10
58785;BME280;44557;51.862;19.378;2023-08-21T03:04:34;99574.59;;;23.21;86.34
58785;BME280;44557;51.862;19.378;2023-08-21T03:06:35;99580.07;;;23.31;85.35
58785;BME280;44557;51.862;19.378;2023-08-21T03:08:37;99585.98;;;23.27;85.64
58785;BME280;44557;51.862;19.378;2023-08-21T03:10:38;99591.50;;;23.34;84.91
58785;BME280;44557;51.862;19.378;2023-08-21T03:12:40;99598.50;;;23.28;85.41
58785;BME280;44557;51.862;19.378;2023-08-21T03:14:43;99597.77;;;23.23;85.86
58785;BME280;44557;51.862;19.378;2023-08-21T03:16:44;99598.00;;;23.29;85.68
58785;BME280;44557;51.862;19.378;2023-08-21T03:18:57;99597.09;;;23.15;86.59
58785;BME280;44557;51.862;19.378;2023-08-21T03:20:59;99601.81;;;23.11;86.85
58785;BME280;44557;51.862;19.378;2023-08-21T03:23:01;99603.05;;;23.08;87.20
58785;BME280;44557;51.862;19.378;2023-08-21T03:25:03;99604.06;;;23.05;88.09
58785;BME280;44557;51.862;19.378;2023-08-21T03:27:04;99614.48;;;23.16;87.17
58785;BME280;44557;51.862;19.378;2023-08-21T03:29:06;99617.55;;;23.11;87.68
58785;BME280;44557;51.862;19.378;2023-08-21T03:31:08;99624.73;;;23.03;87.98
58785;BME280;44557;51.862;19.378;2023-08-21T03:33:10;99626.04;;;23.01;88.38
58785;BME280;44557;51.862;19.378;2023-08-21T03:35:12;99628.33;;;23.10;88.05
58785;BME280;44557;51.862;19.378;2023-08-21T03:37:14;99632.20;;;23.19;87.52
58785;BME280;44557;51.862;19.378;2023-08-21T03:39:16;99635.96;;;23.04;88.51
58785;BME280;44557;51.862;19.378;2023-08-21T03:41:17;99639.64;;;22.94;89.13
58785;BME280;44557;51.862;19.378;2023-08-21T03:43:19;99637.33;;;23.05;88.59
58785;BME280;44557;51.862;19.378;2023-08-21T03:45:21;99637.19;;;23.03;88.82
58785;BME280;44557;51.862;19.378;2023-08-21T03:47:23;99633.93;;;23.00;89.40
58785;BME280;44557;51.862;19.378;2023-08-21T03:49:24;99630.36;;;23.03;89.36
58785;BME280;44557;51.862;19.378;2023-08-21T03:51:26;99628.58;;;23.04;89.74
58785;BME280;44557;51.862;19.378;2023-08-21T03:53:28;99626.54;;;23.00;90.03
58785;BME280;44557;51.862;19.378;2023-08-21T03:55:30;99628.40;;;23.10;89.69
58785;BME280;44557;51.862;19.378;2023-08-21T03:57:33;99624.34;;;23.14;89.46
58785;BME280;44557;51.862;19.378;2023-08-21T03:59:34;99617.23;;;23.15;89.70
58785;BME280;44557;51.862;19.378;2023-08-21T04:01:36;99615.59;;;23.08;90.32
58785;BME280;44557;51.862;19.378;2023-08-21T04:03:38;99607.64;;;22.97;90.82
58785;BME280;44557;51.862;19.378;2023-08-21T04:05:39;99608.20;;;22.97;91.17
58785;BME280;44557;51.862;19.378;2023-08-21T04:07:41;99611.52;;;23.12;90.35
58785;BME280;44557;51.862;19.378;2023-08-21T04:09:43;99614.40;;;23.22;90.06
58785;BME280;44557;51.862;19.378;2023-08-21T04:11:45;99615.34;;;23.20;90.13
58785;BME280;44557;51.862;19.378;2023-08-21T04:13:47;99617.05;;;23.17;90.23
58785;BME280;44557;51.862;19.378;2023-08-21T04:15:48;99616.99;;;23.21;89.94
58785;BME280;44557;51.862;19.378;2023-08-21T04:17:51;99621.54;;;23.41;88.72
58785;BME280;44557;51.862;19.378;2023-08-21T04:19:53;99619.29;;;23.23;89.84
58785;BME280;44557;51.862;19.378;2023-08-21T04:21:55;99615.48;;;23.30;89.82
58785;BME280;44557;51.862;19.378;2023-08-21T04:23:57;99616.30;;;23.25;89.99
58785;BME280;44557;51.862;19.378;2023-08-21T04:26:05;99617.60;;;23.35;89.21
58785;BME280;44557;51.862;19.378;2023-08-21T04:28:07;99620.25;;;23.29;89.37
58785;BME280;44557;51.862;19.378;2023-08-21T04:30:10;99624.64;;;23.16;90.54
58785;BME280;44557;51.862;19.378;2023-08-21T04:32:12;99627.77;;;23.09;91.05
58785;BME280;44557;51.862;19.378;2023-08-21T04:34:14;99631.50;;;23.18;90.56
58785;BME280;44557;51.862;19.378;2023-08-21T04:36:16;99632.52;;;23.14;90.84
58785;BME280;44557;51.862;19.378;2023-08-21T04:38:18;99631.80;;;23.25;90.31
58785;BME280;44557;51.862;19.378;2023-08-21T04:40:20;99632.45;;;23.30;89.74
58785;BME280;44557;51.862;19.378;2023-08-21T04:42:23;99630.82;;;23.25;89.90
58785;BME280;44557;51.862;19.378;2023-08-21T04:44:25;99638.23;;;23.31;89.39
58785;BME280;44557;51.862;19.378;2023-08-21T04:46:27;99642.75;;;23.40;88.90
58785;BME280;44557;51.862;19.378;2023-08-21T04:48:29;99647.63;;;23.31;89.33
58785;BME280;44557;51.862;19.378;2023-08-21T04:50:31;99651.50;;;23.06;90.89
58785;BME280;44557;51.862;19.378;2023-08-21T04:52:32;99653.95;;;23.20;89.94
58785;BME280;44557;51.862;19.378;2023-08-21T04:54:34;99666.91;;;23.08;90.56
58785;BME280;44557;51.862;19.378;2023-08-21T04:56:35;99671.57;;;23.18;89.62
58785;BME280;44557;51.862;19.378;2023-08-21T04:58:37;99672.46;;;23.18;89.71
58785;BME280;44557;51.862;19.378;2023-08-21T05:00:39;99679.86;;;23.06;90.25
58785;BME280;44557;51.862;19.378;2023-08-21T05:02:41;99689.02;;;22.94;90.93
58785;BME280;44557;51.862;19.378;2023-08-21T05:04:43;99705.67;;;22.97;90.64
58785;BME280;44557;51.862;19.378;2023-08-21T05:06:44;99734.38;;;23.12;89.97
58785;BME280;44557;51.862;19.378;2023-08-21T05:08:46;99768.23;;;22.96;91.39
58785;BME280;44557;51.862;19.378;2023-08-21T05:10:48;99781.44;;;22.78;92.85
58785;BME280;44557;51.862;19.378;2023-08-21T05:12:50;99777.45;;;22.75;92.85
58785;BME280;44557;51.862;19.378;2023-08-21T05:14:51;99774.48;;;22.50;94.65
58785;BME280;44557;51.862;19.378;2023-08-21T05:16:53;99766.83;;;22.64;94.28
58785;BME280;44557;51.862;19.378;2023-08-21T05:18:55;99769.94;;;22.48;95.30
58785;BME280;44557;51.862;19.378;2023-08-21T05:20:57;99765.98;;;22.51;95.64
58785;BME280;44557;51.862;19.378;2023-08-21T05:22:58;99766.36;;;22.53;95.33
58785;BME280;44557;51.862;19.378;2023-08-21T05:25:00;99787.17;;;22.50;95.17
58785;BME280;44557;51.862;19.378;2023-08-21T05:27:02;99795.79;;;22.30;94.68
58785;BME280;44557;51.862;19.378;2023-08-21T05:29:05;99794.39;;;22.32;93.19
58785;BME280;44557;51.862;19.378;2023-08-21T05:31:08;99797.65;;;22.36;93.91
58785;BME280;44557;51.862;19.378;2023-08-21T05:33:09;99799.80;;;22.37;94.78
58785;BME280;44557;51.862;19.378;2023-08-21T05:35:11;99805.68;;;22.34;95.42
58785;BME280;44557;51.862;19.378;2023-08-21T05:37:13;99803.98;;;22.44;94.02
58785;BME280;44557;51.862;19.378;2023-08-21T05:39:17;99801.41;;;22.28;96.05
58785;BME280;44557;51.862;19.378;2023-08-21T05:41:20;99792.50;;;22.29;95.28
58785;BME280;44557;51.862;19.378;2023-08-21T05:43:22;99786.05;;;22.32;95.37
58785;BME280;44557;51.862;19.378;2023-08-21T05:45:24;99772.58;;;22.23;95.53
58785;BME280;44557;51.862;19.378;2023-08-21T05:47:26;99775.70;;;22.24;96.06
58785;BME280;44557;51.862;19.378;2023-08-21T05:49:28;99774.70;;;22.29;96.37
58785;BME280;44557;51.862;19.378;2023-08-21T05:51:30;99778.87;;;22.19;96.19
58785;BME280;44557;51.862;19.378;2023-08-21T05:53:32;99777.64;;;22.32;97.07
58785;BME280;44557;51.862;19.378;2023-08-21T05:55:36;99785.11;;;22.30;97.63
58785;BME280;44557;51.862;19.378;2023-08-21T05:57:38;99776.96;;;22.27;97.32
58785;BME280;44557;51.862;19.378;2023-08-21T05:59:46;99777.91;;;22.28;98.17
58785;BME280;44557;51.862;19.378;2023-08-21T06:01:48;99780.65;;;22.17;97.73
58785;BME280;44557;51.862;19.378;2023-08-21T06:03:50;99773.89;;;22.19;97.48
58785;BME280;44557;51.862;19.378;2023-08-21T06:05:52;99769.06;;;22.22;97.03
58785;BME280;44557;51.862;19.378;2023-08-21T06:07:54;99768.67;;;22.21;97.82
58785;BME280;44557;51.862;19.378;2023-08-21T06:09:55;99767.23;;;22.28;97.46
58785;BME280;44557;51.862;19.378;2023-08-21T06:11:57;99773.65;;;22.10;97.92
58785;BME280;44557;51.862;19.378;2023-08-21T06:13:59;99780.98;;;22.15;97.89
58785;BME280;44557;51.862;19.378;2023-08-21T06:16:00;99777.06;;;22.24;97.93
58785;BME280;44557;51.862;19.378;2023-08-21T06:18:04;99777.84;;;22.17;98.56
58785;BME280;44557;51.862;19.378;2023-08-21T06:20:06;99776.61;;;22.29;98.05
58785;BME280;44557;51.862;19.378;2023-08-21T06:22:10;99775.50;;;22.29;98.22
58785;BME280;44557;51.862;19.378;2023-08-21T06:24:11;99772.79;;;22.34;98.28
58785;BME280;44557;51.862;19.378;2023-08-21T06:26:13;99775.07;;;22.31;97.92
58785;BME280;44557;51.862;19.378;2023-08-21T06:28:14;99777.89;;;22.30;98.12
58785;BME280;44557;51.862;19.378;2023-08-21T06:30:17;99777.16;;;22.32;98.53
58785;BME280;44557;51.862;19.378;2023-08-21T06:32:19;99775.40;;;22.40;98.34
58785;BME280;44557;51.862;19.378;2023-08-21T06:34:21;99775.79;;;22.40;98.09
58785;BME280;44557;51.862;19.378;2023-08-21T06:36:23;99773.29;;;22.51;98.62
58785;BME280;44557;51.862;19.378;2023-08-21T06:38:25;99772.39;;;22.43;97.93
58785;BME280;44557;51.862;19.378;2023-08-21T06:40:27;99769.69;;;22.49;98.47
58785;BME280;44557;51.862;19.378;2023-08-21T06:42:28;99772.52;;;22.47;98.56
58785;BME280;44557;51.862;19.378;2023-08-21T06:44:30;99769.38;;;22.72;97.14
58785;BME280;44557;51.862;19.378;2023-08-21T06:46:32;99771.39;;;22.73;97.33
58785;BME280;44557;51.862;19.378;2023-08-21T06:48:37;99773.09;;;22.71;98.05
58785;BME280;44557;51.862;19.378;2023-08-21T06:50:39;99773.62;;;22.81;97.57
58785;BME280;44557;51.862;19.378;2023-08-21T06:52:41;99773.86;;;22.95;97.23
58785;BME280;44557;51.862;19.378;2023-08-21T06:54:43;99771.30;;;23.19;95.68
58785;BME280;44557;51.862;19.378;2023-08-21T06:56:44;99769.69;;;23.41;94.14
58785;BME280;44557;51.862;19.378;2023-08-21T06:58:46;99773.26;;;23.49;93.05
58785;BME280;44557;51.862;19.378;2023-08-21T07:00:48;99763.73;;;24.04;89.86
58785;BME280;44557;51.862;19.378;2023-08-21T07:02:49;99762.65;;;24.71;84.98
58785;BME280;44557;51.862;19.378;2023-08-21T07:04:52;99760.56;;;24.95;84.22
58785;BME280;44557;51.862;19.378;2023-08-21T07:06:53;99756.20;;;25.60;81.14
58785;BME280;44557;51.862;19.378;2023-08-21T07:08:55;99758.36;;;25.54;77.74
58785;BME280;44557;51.862;19.378;2023-08-21T07:10:57;99757.20;;;25.25;77.11
58785;BME280;44557;51.862;19.378;2023-08-21T07:12:59;99756.09;;;25.02;74.99
58785;BME280;44557;51.862;19.378;2023-08-21T07:15:00;99756.98;;;24.98;74.04
58785;BME280;44557;51.862;19.378;2023-08-21T07:17:02;99759.63;;;25.10;73.97
58785;BME280;44557;51.862;19.378;2023-08-21T07:19:04;99761.35;;;25.24;72.71
58785;BME280;44557;51.862;19.378;2023-08-21T07:21:05;99760.16;;;25.34;73.73
58785;BME280;44557;51.862;19.378;2023-08-21T07:23:07;99758.00;;;25.36;75.40
58785;BME280;44557;51.862;19.378;2023-08-21T07:25:09;99756.55;;;26.06;72.67
58785;BME280;44557;51.862;19.378;2023-08-21T07:27:10;99755.16;;;26.78;70.38
58785;BME280;44557;51.862;19.378;2023-08-21T07:29:12;99759.02;;;27.38;68.42
58785;BME280;44557;51.862;19.378;2023-08-21T07:31:14;99758.95;;;27.69;65.70
58785;BME280;44557;51.862;19.378;2023-08-21T07:33:15;99759.36;;;27.94;64.26
58785;BME280;44557;51.862;19.378;2023-08-21T07:35:17;99760.82;;;28.28;61.90
58785;BME280;44557;51.862;19.378;2023-08-21T07:37:18;99757.31;;;28.50;60.13
58785;BME280;44557;51.862;19.378;2023-08-21T07:39:20;99760.45;;;28.65;60.04
58785;BME280;44557;51.862;19.378;2023-08-21T07:41:22;99760.98;;;28.66;58.95
58785;BME280;44557;51.862;19.378;2023-08-21T07:43:23;99756.65;;;28.92;59.43
58785;BME280;44557;51.862;19.378;2023-08-21T07:45:25;99758.13;;;29.13;56.27
58785;BME280;44557;51.862;19.378;2023-08-21T07:47:27;99759.36;;;29.16;56.20
58785;BME280;44557;51.862;19.378;2023-08-21T07:49:29;99753.69;;;29.48;55.47
58785;BME280;44557;51.862;19.378;2023-08-21T07:51:30;99754.86;;;29.68;54.37
58785;BME280;44557;51.862;19.378;2023-08-21T07:53:32;99755.57;;;29.31;53.77
58785;BME280;44557;51.862;19.378;2023-08-21T07:55:36;99759.07;;;29.27;52.77
58785;BME280;44557;51.862;19.378;2023-08-21T07:57:37;99755.70;;;29.59;52.78
58785;BME280;44557;51.862;19.378;2023-08-21T07:59:39;99755.56;;;29.57;51.69
58785;BME280;44557;51.862;19.378;2023-08-21T08:01:41;99752.89;;;29.73;50.28
58785;BME280;44557;51.862;19.378;2023-08-21T08:03:42;99752.23;;;30.30;48.84
58785;BME280;44557;51.862;19.378;2023-08-21T08:05:44;99753.23;;;30.12;48.91
58785;BME280;44557;51.862;19.378;2023-08-21T08:07:46;99760.96;;;29.96;48.37
58785;BME280;44557;51.862;19.378;2023-08-21T08:09:47;99760.13;;;29.89;48.42
58785;BME280;44557;51.862;19.378;2023-08-21T08:11:49;99756.83;;;29.90;48.38
58785;BME280;44557;51.862;19.378;2023-08-21T08:13:50;99758.45;;;29.98;47.66
58785;BME280;44557;51.862;19.378;2023-08-21T08:15:52;99752.48;;;30.01;47.27
58785;BME280;44557;51.862;19.378;2023-08-21T08:17:54;99751.09;;;30.15;47.26
58785;BME280;44557;51.862;19.378;2023-08-21T08:19:56;99759.30;;;29.95;46.77
58785;BME280;44557;51.862;19.378;2023-08-21T08:21:58;99762.95;;;30.15;47.13
58785;BME280;44557;51.862;19.378;2023-08-21T08:23:59;99767.86;;;30.41;47.08
58785;BME280;44557;51.862;19.378;2023-08-21T08:26:01;99771.79;;;30.34;47.65
58785;BME280;44557;51.862;19.378;2023-08-21T08:28:03;99777.39;;;30.59;47.19
58785;BME280;44557;51.862;19.378;2023-08-21T08:30:05;99777.97;;;30.66;48.47
58785;BME280;44557;51.862;19.378;2023-08-21T08:32:07;99775.56;;;30.58;48.17
58785;BME280;44557;51.862;19.378;2023-08-21T08:34:09;99779.80;;;30.84;46.84
58785;BME280;44557;51.862;19.378;2023-08-21T08:36:10;99773.71;;;30.33;47.28
58785;BME280;44557;51.862;19.378;2023-08-21T08:38:12;99777.88;;;30.63;45.96
58785;BME280;44557;51.862;19.378;2023-08-21T08:40:14;99779.68;;;31.01;45.08
58785;BME280;44557;51.862;19.378;2023-08-21T08:42:16;99777.66;;;30.99;44.72
58785;BME280;44557;51.862;19.378;2023-08-21T08:44:18;99774.04;;;31.37;44.74
58785;BME280;44557;51.862;19.378;2023-08-21T08:46:20;99771.17;;;30.95;45.49
58785;BME280;44557;51.862;19.378;2023-08-21T08:48:22;99765.23;;;30.73;46.58
58785;BME280;44557;51.862;19.378;2023-08-21T08:50:24;99767.58;;;31.22;45.66
58785;BME280;44557;51.862;19.378;2023-08-21T08:52:27;99762.95;;;31.50;43.69
58785;BME280;44557;51.862;19.378;2023-08-21T08:54:31;99763.98;;;31.57;41.71
58785;BME280;44557;51.862;19.378;2023-08-21T08:56:33;99762.95;;;31.49;40.97
58785;BME280;44557;51.862;19.378;2023-08-21T08:58:35;99763.81;;;31.66;41.05
58785;BME280;44557;51.862;19.378;2023-08-21T09:00:37;99763.90;;;32.13;40.56
58785;BME280;44557;51.862;19.378;2023-08-21T09:02:39;99757.27;;;31.85;41.29
58785;BME280;44557;51.862;19.378;2023-08-21T09:04:40;99755.71;;;31.75;41.68
58785;BME280;44557;51.862;19.378;2023-08-21T09:06:42;99757.44;;;32.32;41.08
58785;BME280;44557;51.862;19.378;2023-08-21T09:08:56;99757.14;;;32.29;40.68
58785;BME280;44557;51.862;19.378;2023-08-21T09:11:02;99757.22;;;31.88;40.21
58785;BME280;44557;51.862;19.378;2023-08-21T09:13:31;99757.83;;;32.12;40.19
58785;BME280;44557;51.862;19.378;2023-08-21T09:15:35;99757.80;;;32.09;39.18
58785;BME280;44557;51.862;19.378;2023-08-21T09:17:37;99760.15;;;32.33;38.64
58785;BME280;44557;51.862;19.378;2023-08-21T09:19:39;99759.82;;;32.21;38.41
58785;BME280;44557;51.862;19.378;2023-08-21T09:21:42;99760.48;;;31.92;37.84
58785;BME280;44557;51.862;19.378;2023-08-21T09:23:44;99759.29;;;31.84;37.59
58785;BME280;44557;51.862;19.378;2023-08-21T09:25:48;99759.21;;;31.41;38.40
58785;BME280;44557;51.862;19.378;2023-08-21T09:27:53;99758.91;;;31.31;39.14
58785;BME280;44557;51.862;19.378;2023-08-21T09:29:55;99755.63;;;31.87;39.36
58785;BME280;44557;51.862;19.378;2023-08-21T09:31:57;99747.86;;;32.38;38.12
58785;BME280;44557;51.862;19.378;2023-08-21T09:34:00;99743.96;;;32.44;37.22
58785;BME280;44557;51.862;19.378;2023-08-21T09:36:03;99743.35;;;31.74;37.72
58785;BME280;44557;51.862;19.378;2023-08-21T09:38:06;99746.76;;;31.76;37.20
58785;BME280;44557;51.862;19.378;2023-08-21T09:40:09;99745.48;;;32.22;36.19
58785;BME280;44557;51.862;19.378;2023-08-21T09:42:13;99749.75;;;32.20;36.61
58785;BME280;44557;51.862;19.378;2023-08-21T09:44:16;99745.31;;;31.95;36.70
58785;BME280;44557;51.862;19.378;2023-08-21T09:46:23;99743.39;;;31.90;36.14
58785;BME280;44557;51.862;19.378;2023-08-21T09:48:26;99745.64;;;32.08;35.29
58785;BME280;44557;51.862;19.378;2023-08-21T09:50:32;99742.93;;;32.05;35.18
58785;BME280;44557;51.862;19.378;2023-08-21T09:52:35;99742.07;;;32.11;34.87
58785;BME280;44557;51.862;19.378;2023-08-21T09:54:42;99737.60;;;32.32;34.70
58785;BME280;44557;51.862;19.378;2023-08-21T09:56:45;99738.09;;;32.48;35.41
58785;BME280;44557;51.862;19.378;2023-08-21T09:58:48;99731.30;;;32.84;34.60
58785;BME280;44557;51.862;19.378;2023-08-21T10:00:51;99736.20;;;32.23;34.61
58785;BME280;44557;51.862;19.378;2023-08-21T10:02:53;99737.10;;;32.25;34.94
58785;BME280;44557;51.862;19.378;2023-08-21T10:04:58;99734.96;;;32.59;35.25
58785;BME280;44557;51.862;19.378;2023-08-21T10:07:02;99732.15;;;33.10;34.45
58785;BME280;44557;51.862;19.378;2023-08-21T10:09:09;99736.09;;;32.89;34.80
58785;BME280;44557;51.862;19.378;2023-08-21T10:11:11;99739.82;;;32.56;34.54
58785;BME280;44557;51.862;19.378;2023-08-21T10:13:13;99740.41;;;32.45;34.62
58785;BME280;44557;51.862;19.378;2023-08-21T10:15:15;99745.38;;;32.41;34.60
58785;BME280;44557;51.862;19.378;2023-08-21T10:17:17;99743.70;;;32.49;34.47
58785;BME280;44557;51.862;19.378;2023-08-21T10:19:20;99735.13;;;33.17;34.65
58785;BME280;44557;51.862;19.378;2023-08-21T10:21:22;99736.33;;;32.99;33.74
58785;BME280;44557;51.862;19.378;2023-08-21T10:23:31;99739.23;;;32.68;33.79
58785;BME280;44557;51.862;19.378;2023-08-21T10:25:41;99739.35;;;32.44;33.64
58785;BME280;44557;51.862;19.378;2023-08-21T10:27:43;99746.61;;;32.36;33.52
58785;BME280;44557;51.862;19.378;2023-08-21T10:29:56;99740.30;;;32.59;33.24
58785;BME280;44557;51.862;19.378;2023-08-21T10:32:03;99741.70;;;32.36;33.18
58785;BME280;44557;51.862;19.378;2023-08-21T10:34:07;99743.30;;;32.01;33.22
58785;BME280;44557;51.862;19.378;2023-08-21T10:36:10;99741.08;;;32.24;33.46
58785;BME280;44557;51.862;19.378;2023-08-21T10:38:16;99733.55;;;32.31;33.56
58785;BME280;44557;51.862;19.378;2023-08-21T10:40:22;99738.34;;;32.09;33.23
58785;BME280;44557;51.862;19.378;2023-08-21T10:42:51;99739.86;;;31.93;33.33
58785;BME280;44557;51.862;19.378;2023-08-21T10:44:53;99736.92;;;31.97;33.63
58785;BME280;44557;51.862;19.378;2023-08-21T10:49:28;99725.04;;;32.35;32.94
58785;BME280;44557;51.862;19.378;2023-08-21T10:51:30;99718.05;;;32.81;32.57